Villa Rica, GA

07:54 AM EDT on Octòbre 21, 2014 (GMT -0400)
Villa Rica, GA | Change Station
CLOSE
Current Station
Personal Weather Stations
Location: Villa Rica, GA
Elevation: 1145 ft
Nearby Weather Stations

Elev 1145 ft 33.73 °N, 84.92 °W | Updated 11 seconds ago

Clar
Clar
50.7 °F
Feels Like 50.7 °F
N
2.9
vent Variadís vent from OSO
Gusts 3.0 mph

Auèi
High -- | Low -- °F
--% Chance of Precip.
Yesterday
High -- | Low -- °F
Precip. -- Dins
7:49 AM 6:58 PM
Waning Crescent, 6% visible
Pression 30.02 Dins
Visibilitat 10.0 miles
Nivols Clar
Punt de ròs 48 °F
Imor 90%
Rainfall 0.00 Dins
Snow Depth Not available.
UV 0 out of 12
Pollen 3.20 out of 12
Ozone Good
PM2.5 Moderate
Flu Activity Sporadic
METAR KPUJ 211135Z AUTO 30004KT 10SM CLR 12/10 A3002 RMK AO2

More Conditions Fewer Conditions

Pression 30.02 Dins
Visibilitat 10.0 miles
Nivols Clar
Punt de ròs 48 °F
Imor 90%
Rainfall 0.00 Dins
Snow Depth Not available.
UV 0 out of 12
Pollen 3.20 out of 12
Ozone Good
PM2.5 Moderate
Flu Activity Sporadic
METAR KPUJ 211135Z AUTO 30004KT 10SM CLR 12/10 A3002 RMK AO2

More Conditions Fewer Conditions

10-Day Weather Forecast

Almanac

Astronomy

Oct. 21, 2014 Rise Set
Actual Time 7:49 AM EDT 6:58 PM EDT
Civil Twilight 7:24 AM EDT 7:24 PM EDT
Nautical Twilight 6:54 AM EDT 7:53 PM EDT
Astronomical Twilight 6:26 AM EDT 8:22 PM EDT
Luna 5:39 AM EDT 5:47 PM EDT
Length Of Visible Light 11h 59m
Length of Day
11h 09m
Tomorrow will be 1m 58s shorter.
Waning Crescent, 6% of the Moon is Illuminated
Auèi
Waning Crescent
Oct 23
New
Oct 30
First Quarter
Nov 6
Full
Nov 14
Last Quarter

Today's Extremes

State Highs State Lows

Community

WunderPhotos

Upload Photos

1,763,631 photos uploaded!

Nearby

Air Quality

  Air Quality AQ Index Pollutant
Yesterday Good
PM10
Yesterday Good
OZONE
Current Moderate
PM2.5
Current Good
OZONE
Dimars Moderate
PM2.5
Dimars Good
OZONE

Snow Depth

Station Depth Elevation
No new snow has been reported.

Earthquake Activity

Vila Distance Mag. Time & Date
No recent earthquake activity has been reported nearby.
Minimum magnitude displayed is 2.5.

Coastal Water Temperatures

Luòc Temperatura
No Stations Reporting

Nearby Weather Stations